Terminal Aerodrome Forecast
Issued by NWS Wilmington, NC

Home | Current Version | Previous Version | Text Only | Print | Product List | Glossary On
Versions: 1 2 3 4 5 6 7 8 9 10 11 12 13 14 15 16 17 18 19 20 21 22 23
000
FTUS42 KILM 232320
TAFMYR
TAF
KMYR 232320Z 2400/2424 20014KT P6SM SCT030 SCT250
     FM240100 21012KT P6SM VCTS SCT040CB SCT250
      TEMPO 2404/2408 VRB10KT 5SM TSRA BKN060CB
     FM240800 25008KT P6SM -SHRA VCTS BKN040CB
     FM241000 25008KT P6SM VCSH SCT025 BKN100
      TEMPO 2413/2417 BKN025
     FM241700 18004KT 4SM SHRA VCTS BKN040CB
      AMD LTD TO CLD VIS AND WIND 2403/2410=

USA.gov is the U.S. government's official web portal to all federal, state and local government web resources and services.